createdAt,value
2023-02-17T00:00:47.261Z,10.80
2023-02-17T00:01:47.264Z,10.40
2023-02-17T00:02:47.324Z,10.20
2023-02-17T00:03:47.313Z,10.20
2023-02-17T00:04:47.252Z,10.70
2023-02-17T00:05:49.361Z,10.00
2023-02-17T00:06:47.243Z,10.70
2023-02-17T00:07:47.246Z,10.70
2023-02-17T00:08:47.240Z,10.40
2023-02-17T00:09:47.239Z,10.70
2023-02-17T00:10:47.251Z,10.60
2023-02-17T00:11:47.233Z,10.60
2023-02-17T00:12:47.232Z,10.80
2023-02-17T00:13:47.238Z,11.00
2023-02-17T00:14:47.223Z,11.60
2023-02-17T00:15:47.248Z,11.40
2023-02-17T00:16:47.218Z,11.40
2023-02-17T00:17:47.217Z,11.20
2023-02-17T00:18:47.236Z,11.90
2023-02-17T00:19:47.214Z,12.00
2023-02-17T00:20:47.216Z,12.80
2023-02-17T00:21:47.220Z,13.70
2023-02-17T00:22:47.203Z,13.60
2023-02-17T00:23:47.219Z,14.20
2023-02-17T00:24:47.201Z,14.90
2023-02-17T00:25:47.207Z,15.50
2023-02-17T00:26:47.195Z,16.20
2023-02-17T00:27:47.189Z,16.50
2023-02-17T00:28:47.189Z,16.80
2023-02-17T00:29:47.190Z,16.60
2023-02-17T00:30:47.187Z,16.20
2023-02-17T00:31:47.321Z,16.40
2023-02-17T00:32:47.190Z,16.30
2023-02-17T00:33:47.181Z,15.90
2023-02-17T00:34:47.198Z,15.80
2023-02-17T00:35:47.179Z,16.20
2023-02-17T00:36:47.172Z,15.90
2023-02-17T00:37:47.171Z,15.60
2023-02-17T00:38:47.169Z,15.90
2023-02-17T00:39:47.166Z,15.50
2023-02-17T00:40:47.160Z,15.40
2023-02-17T00:41:47.162Z,15.60
2023-02-17T00:42:47.154Z,16.00
2023-02-17T00:43:47.160Z,15.50
2023-02-17T00:44:47.149Z,15.00
2023-02-17T00:45:47.148Z,15.40
2023-02-17T00:46:47.180Z,15.30
2023-02-17T00:47:47.148Z,15.20
2023-02-17T00:48:47.182Z,15.00
2023-02-17T00:49:47.141Z,14.70
2023-02-17T00:50:47.158Z,14.90
2023-02-17T00:51:47.144Z,14.80
2023-02-17T00:52:47.128Z,15.20
2023-02-17T00:53:47.130Z,15.30
2023-02-17T00:54:47.129Z,14.90
2023-02-17T00:55:47.154Z,15.00
2023-02-17T00:56:47.132Z,14.90
2023-02-17T00:57:47.117Z,14.60
2023-02-17T00:58:47.137Z,14.60
2023-02-17T00:59:47.123Z,14.60
2023-02-17T01:00:47.109Z,14.80
2023-02-17T01:01:47.184Z,14.40
2023-02-17T01:02:47.106Z,14.50
2023-02-17T01:03:47.108Z,14.10
2023-02-17T01:04:47.147Z,14.30
2023-02-17T01:05:47.093Z,14.50
2023-02-17T01:06:47.112Z,14.80
2023-02-17T01:07:47.095Z,14.80
2023-02-17T01:08:47.090Z,14.70
2023-02-17T01:09:47.088Z,14.80
2023-02-17T01:10:47.085Z,14.60
2023-02-17T01:11:47.085Z,14.70
2023-02-17T01:12:47.085Z,13.90
2023-02-17T01:13:47.089Z,13.80
2023-02-17T01:14:47.067Z,13.50
2023-02-17T01:15:47.092Z,14.00
2023-02-17T01:16:47.064Z,14.20
2023-02-17T01:17:47.062Z,14.30
2023-02-17T01:18:47.063Z,13.90
2023-02-17T01:19:47.062Z,14.40
2023-02-17T01:20:47.069Z,13.90
2023-02-17T01:21:47.066Z,14.40
2023-02-17T01:22:47.069Z,13.50
2023-02-17T01:23:47.048Z,13.50
2023-02-17T01:24:47.044Z,13.90
2023-02-17T01:25:47.049Z,14.10
2023-02-17T01:26:47.036Z,13.50
2023-02-17T01:27:47.044Z,13.40
2023-02-17T01:28:47.026Z,14.00
2023-02-17T01:29:47.031Z,13.60
2023-02-17T01:30:47.056Z,14.00
2023-02-17T01:31:47.071Z,13.80
2023-02-17T01:32:47.064Z,13.80
2023-02-17T01:33:47.018Z,13.60
2023-02-17T01:34:47.025Z,13.40
2023-02-17T01:35:47.017Z,13.90
2023-02-17T01:36:47.012Z,13.30
2023-02-17T01:37:47.007Z,13.30
2023-02-17T01:38:47.041Z,13.60
2023-02-17T01:39:47.003Z,13.60
2023-02-17T01:40:46.992Z,12.90
2023-02-17T01:41:46.998Z,13.60
2023-02-17T01:42:46.989Z,13.40
2023-02-17T01:43:46.985Z,13.00
2023-02-17T01:44:46.984Z,13.20
2023-02-17T01:45:46.987Z,12.80
2023-02-17T01:46:47.024Z,13.30
2023-02-17T01:47:46.970Z,13.50
2023-02-17T01:48:46.971Z,13.20
2023-02-17T01:49:46.970Z,13.30
2023-02-17T01:50:46.971Z,13.30
2023-02-17T01:51:46.965Z,13.60
2023-02-17T01:52:46.965Z,12.90
2023-02-17T01:53:46.962Z,13.50
2023-02-17T01:54:46.970Z,13.20
2023-02-17T01:55:46.958Z,13.50
2023-02-17T01:56:46.942Z,13.10
2023-02-17T01:57:46.947Z,13.30
2023-02-17T01:58:46.949Z,12.70
2023-02-17T01:59:46.962Z,13.10
2023-02-17T02:00:46.936Z,12.60
2023-02-17T02:01:47.057Z,12.70
2023-02-17T02:02:47.038Z,12.60
2023-02-17T02:03:46.934Z,13.20
2023-02-17T02:04:46.921Z,13.10
2023-02-17T02:05:46.927Z,12.60
2023-02-17T02:06:46.920Z,13.10
2023-02-17T02:07:46.914Z,12.10
2023-02-17T02:08:46.918Z,12.50
2023-02-17T02:09:46.906Z,12.80
2023-02-17T02:10:46.928Z,12.70
2023-02-17T02:11:46.899Z,12.60
2023-02-17T02:12:46.906Z,12.70
2023-02-17T02:13:46.896Z,12.70
2023-02-17T02:14:46.901Z,12.60
2023-02-17T02:15:46.897Z,12.60
2023-02-17T02:16:46.942Z,13.00
2023-02-17T02:17:46.889Z,13.30
2023-02-17T02:18:46.885Z,13.20
2023-02-17T02:19:46.896Z,13.00
2023-02-17T02:20:46.893Z,13.30
2023-02-17T02:21:46.879Z,13.40
2023-02-17T02:22:46.884Z,13.70
2023-02-17T02:23:46.887Z,13.30
2023-02-17T02:24:46.873Z,13.70
2023-02-17T02:25:46.866Z,13.70
2023-02-17T02:26:46.892Z,13.30
2023-02-17T02:27:46.871Z,14.00
2023-02-17T02:28:46.867Z,14.40
2023-02-17T02:29:46.862Z,15.40
2023-02-17T02:30:46.931Z,15.20
2023-02-17T02:31:46.911Z,14.80
2023-02-17T02:32:46.856Z,15.30
2023-02-17T02:33:46.849Z,16.00
2023-02-17T02:34:46.852Z,15.50
2023-02-17T02:35:46.852Z,16.30
2023-02-17T02:36:46.847Z,15.40
2023-02-17T02:37:46.842Z,15.60
2023-02-17T02:38:46.834Z,15.90
2023-02-17T02:39:46.837Z,15.50
2023-02-17T02:40:46.830Z,15.40
2023-02-17T02:41:46.833Z,15.70
2023-02-17T02:42:46.850Z,16.10
2023-02-17T02:43:46.819Z,16.00
2023-02-17T02:44:46.828Z,15.90
2023-02-17T02:45:46.862Z,16.40
2023-02-17T02:46:46.813Z,15.90
2023-02-17T02:47:46.809Z,16.10
2023-02-17T02:48:46.804Z,15.80
2023-02-17T02:49:46.802Z,16.20
2023-02-17T02:50:46.803Z,15.60
2023-02-17T02:51:46.799Z,15.70
2023-02-17T02:52:46.798Z,15.90
2023-02-17T02:53:46.787Z,15.70
2023-02-17T02:54:46.794Z,15.50
2023-02-17T02:55:46.782Z,15.50
2023-02-17T02:56:46.794Z,15.20
2023-02-17T02:57:46.776Z,15.40
2023-02-17T02:58:46.806Z,15.80
2023-02-17T02:59:46.773Z,16.00
2023-02-17T03:00:46.805Z,15.80
2023-02-17T03:01:46.773Z,16.00
2023-02-17T03:02:46.767Z,16.50
2023-02-17T03:03:46.797Z,15.70
2023-02-17T03:04:46.756Z,15.90
2023-02-17T03:05:46.751Z,16.00
2023-02-17T03:06:46.761Z,16.90
2023-02-17T03:07:46.747Z,16.40
2023-02-17T03:08:46.756Z,16.70
2023-02-17T03:09:46.743Z,16.60
2023-02-17T03:10:46.739Z,17.20
2023-02-17T03:11:46.747Z,16.40
2023-02-17T03:12:46.743Z,16.60
2023-02-17T03:13:46.728Z,17.40
2023-02-17T03:14:46.753Z,17.30
2023-02-17T03:15:46.724Z,17.90
2023-02-17T03:16:46.803Z,16.70
2023-02-17T03:17:46.717Z,16.90
2023-02-17T03:18:46.717Z,16.50
2023-02-17T03:19:46.713Z,16.60
2023-02-17T03:20:46.720Z,16.50
2023-02-17T03:21:46.703Z,16.50
2023-02-17T03:22:46.714Z,16.20
2023-02-17T03:23:46.713Z,16.90
2023-02-17T03:24:46.699Z,16.10
2023-02-17T03:25:46.690Z,17.00
2023-02-17T03:26:46.691Z,17.00
2023-02-17T03:27:46.698Z,16.50
2023-02-17T03:28:46.701Z,16.20
2023-02-17T03:29:46.691Z,17.10
2023-02-17T03:30:46.700Z,16.60
2023-02-17T03:31:46.789Z,17.00
2023-02-17T03:32:46.675Z,17.10
2023-02-17T03:33:46.675Z,16.90
2023-02-17T03:34:46.670Z,17.20
2023-02-17T03:35:46.668Z,16.80
2023-02-17T03:36:46.661Z,17.00
2023-02-17T03:37:46.654Z,17.30
2023-02-17T03:38:46.653Z,16.90
2023-02-17T03:39:46.660Z,16.50
2023-02-17T03:40:46.650Z,16.90
2023-02-17T03:41:46.648Z,16.30
2023-02-17T03:42:46.654Z,16.00
2023-02-17T03:43:46.634Z,15.70
2023-02-17T03:44:46.641Z,15.70
2023-02-17T03:45:46.650Z,15.90
2023-02-17T03:46:46.659Z,16.00
2023-02-17T03:47:46.628Z,16.40
2023-02-17T03:48:46.631Z,16.00
2023-02-17T03:49:46.646Z,16.10
2023-02-17T03:50:46.617Z,16.50
2023-02-17T03:51:46.630Z,16.90
2023-02-17T03:52:46.620Z,16.20
2023-02-17T03:53:46.610Z,16.60
2023-02-17T03:54:46.607Z,16.30
2023-02-17T03:55:46.601Z,16.50
2023-02-17T03:56:46.612Z,16.40
2023-02-17T03:57:46.591Z,16.40
2023-02-17T03:58:46.589Z,16.70
2023-02-17T03:59:46.585Z,16.90
2023-02-17T04:00:46.593Z,16.50
2023-02-17T04:01:46.576Z,15.00
2023-02-17T04:02:46.607Z,15.80
2023-02-17T04:03:46.654Z,15.50
2023-02-17T04:04:46.572Z,15.80
2023-02-17T04:05:46.573Z,15.30
2023-02-17T04:06:46.575Z,14.80
2023-02-17T04:07:46.562Z,15.20
2023-02-17T04:08:46.559Z,14.90
2023-02-17T04:09:46.551Z,15.20
2023-02-17T04:10:46.553Z,14.50
2023-02-17T04:11:46.549Z,14.70
2023-02-17T04:12:46.551Z,14.50
2023-02-17T04:13:46.547Z,14.60
2023-02-17T04:14:46.547Z,15.00
2023-02-17T04:15:46.587Z,15.40
2023-02-17T04:16:46.534Z,15.50
2023-02-17T04:17:46.526Z,15.40
2023-02-17T04:18:46.544Z,15.50
2023-02-17T04:19:46.518Z,15.10
2023-02-17T04:20:46.521Z,15.10
2023-02-17T04:21:46.515Z,15.80
2023-02-17T04:22:46.565Z,15.70
2023-02-17T04:23:46.520Z,15.60
2023-02-17T04:24:46.506Z,15.70
2023-02-17T04:25:46.508Z,15.50
2023-02-17T04:26:46.509Z,15.80
2023-02-17T04:27:46.499Z,15.50
2023-02-17T04:28:46.498Z,15.30
2023-02-17T04:29:46.486Z,14.90
2023-02-17T04:30:46.559Z,15.20
2023-02-17T04:31:46.611Z,15.30
2023-02-17T04:32:46.484Z,15.40
2023-02-17T04:33:46.476Z,14.50
2023-02-17T04:34:46.503Z,14.60
2023-02-17T04:35:46.481Z,14.70
2023-02-17T04:36:46.474Z,14.90
2023-02-17T04:37:46.465Z,14.80
2023-02-17T04:38:46.461Z,15.10
2023-02-17T04:39:46.456Z,14.90
2023-02-17T04:40:46.456Z,14.80
2023-02-17T04:41:46.452Z,14.70
2023-02-17T04:42:46.457Z,14.80
2023-02-17T04:43:46.447Z,14.70
2023-02-17T04:44:46.450Z,15.00
2023-02-17T04:45:46.465Z,15.20
2023-02-17T04:46:46.437Z,14.90
2023-02-17T04:47:46.441Z,14.70
2023-02-17T04:48:46.432Z,14.80
2023-02-17T04:49:46.426Z,14.60
2023-02-17T04:50:46.449Z,14.50
2023-02-17T04:51:46.422Z,14.90
2023-02-17T04:52:46.420Z,14.80
2023-02-17T04:53:46.416Z,14.90
2023-02-17T04:54:46.416Z,14.70
2023-02-17T04:55:46.406Z,15.20
2023-02-17T04:56:46.412Z,14.60
2023-02-17T04:57:46.404Z,14.60
2023-02-17T04:58:46.407Z,14.90
2023-02-17T04:59:46.394Z,14.50
2023-02-17T05:00:46.398Z,14.80
2023-02-17T05:01:46.414Z,14.50
2023-02-17T05:02:46.386Z,14.70
2023-02-17T05:03:46.390Z,14.30
2023-02-17T05:04:46.448Z,14.60
2023-02-17T05:05:46.377Z,14.80
2023-02-17T05:06:46.396Z,15.80
2023-02-17T05:07:46.371Z,14.60
2023-02-17T05:08:46.367Z,15.20
2023-02-17T05:09:46.367Z,14.80
2023-02-17T05:10:46.368Z,15.10
2023-02-17T05:11:46.357Z,15.20
2023-02-17T05:12:46.363Z,14.80
2023-02-17T05:13:46.347Z,14.70
2023-02-17T05:14:46.354Z,15.00
2023-02-17T05:15:46.380Z,14.70
2023-02-17T05:16:46.350Z,14.40
2023-02-17T05:17:46.346Z,14.40
2023-02-17T05:18:46.339Z,14.60
2023-02-17T05:19:46.333Z,14.80
2023-02-17T05:20:46.343Z,14.60
2023-02-17T05:21:46.325Z,14.60
2023-02-17T05:22:46.353Z,15.10
2023-02-17T05:23:46.326Z,15.00
2023-02-17T05:24:46.332Z,15.60
2023-02-17T05:25:46.321Z,14.90
2023-02-17T05:26:46.314Z,14.90
2023-02-17T05:27:46.310Z,14.80
2023-02-17T05:28:46.311Z,15.00
2023-02-17T05:29:46.306Z,14.50
2023-02-17T05:30:46.311Z,14.80
2023-02-17T05:31:46.377Z,14.90
2023-02-17T05:32:46.298Z,14.80
2023-02-17T05:33:46.289Z,15.70
2023-02-17T05:34:46.289Z,15.20
2023-02-17T05:35:46.284Z,16.00
2023-02-17T05:36:46.289Z,15.70
2023-02-17T05:37:46.284Z,16.30
2023-02-17T05:38:46.298Z,15.90
2023-02-17T05:39:46.275Z,15.80
2023-02-17T05:40:46.276Z,16.00
2023-02-17T05:41:46.266Z,16.30
2023-02-17T05:42:46.270Z,16.50
2023-02-17T05:43:46.265Z,15.60
2023-02-17T05:44:46.262Z,16.00
2023-02-17T05:45:46.259Z,15.30
2023-02-17T05:46:46.306Z,16.00
2023-02-17T05:47:46.247Z,15.70
2023-02-17T05:48:46.255Z,15.70
2023-02-17T05:49:46.243Z,15.20
2023-02-17T05:50:46.251Z,15.90
2023-02-17T05:51:46.237Z,16.00
2023-02-17T05:52:46.240Z,16.20
2023-02-17T05:53:46.234Z,16.20
2023-02-17T05:54:46.249Z,15.70
2023-02-17T05:55:48.579Z,15.80
2023-02-17T05:56:46.232Z,16.40
2023-02-17T05:57:46.221Z,16.80
2023-02-17T05:58:46.224Z,16.60
2023-02-17T05:59:46.210Z,16.70
2023-02-17T06:00:46.219Z,16.50
2023-02-17T06:01:46.219Z,16.10
2023-02-17T06:02:46.248Z,16.10
2023-02-17T06:03:46.206Z,16.00
2023-02-17T06:04:46.306Z,16.20
2023-02-17T06:05:46.196Z,15.60
2023-02-17T06:06:46.201Z,15.60
2023-02-17T06:07:46.193Z,15.60
2023-02-17T06:08:46.204Z,15.50
2023-02-17T06:09:47.302Z,15.60
2023-02-17T06:10:46.208Z,15.60
2023-02-17T06:11:46.178Z,15.10
2023-02-17T06:12:46.184Z,15.20
2023-02-17T06:13:46.172Z,15.80
2023-02-17T06:14:46.173Z,15.60
2023-02-17T06:15:46.198Z,15.90
2023-02-17T06:16:46.165Z,16.00
2023-02-17T06:17:46.166Z,15.50
2023-02-17T06:18:46.160Z,15.50
2023-02-17T06:19:46.157Z,15.40
2023-02-17T06:20:46.162Z,15.40
2023-02-17T06:21:46.155Z,15.40
2023-02-17T06:22:46.145Z,16.00
2023-02-17T06:23:46.150Z,15.30
2023-02-17T06:24:46.143Z,15.20
2023-02-17T06:25:46.135Z,15.10
2023-02-17T06:26:46.153Z,15.20
2023-02-17T06:27:46.132Z,14.80
2023-02-17T06:28:46.138Z,15.00
2023-02-17T06:29:46.128Z,14.70
2023-02-17T06:30:46.137Z,14.40
2023-02-17T06:31:46.221Z,14.50
2023-02-17T06:32:46.122Z,15.00
2023-02-17T06:33:46.115Z,15.40
2023-02-17T06:34:46.105Z,15.40
2023-02-17T06:35:46.105Z,15.30
2023-02-17T06:36:46.110Z,15.30
2023-02-17T06:37:46.102Z,15.00
2023-02-17T06:38:46.091Z,15.90
2023-02-17T06:39:46.095Z,15.80
2023-02-17T06:40:46.096Z,15.90
2023-02-17T06:41:46.093Z,15.20
2023-02-17T06:42:46.111Z,15.40
2023-02-17T06:43:46.080Z,16.10
2023-02-17T06:44:46.078Z,16.00
2023-02-17T06:45:46.100Z,16.00
2023-02-17T06:46:46.064Z,15.30
2023-02-17T06:47:46.066Z,15.40
2023-02-17T06:48:46.072Z,15.90
2023-02-17T06:49:46.063Z,16.00
2023-02-17T06:50:46.058Z,15.60
2023-02-17T06:51:46.053Z,15.40
2023-02-17T06:52:46.049Z,15.80
2023-02-17T06:53:46.054Z,15.40
2023-02-17T06:54:46.043Z,15.30
2023-02-17T06:55:46.050Z,15.80
2023-02-17T06:56:46.041Z,15.60
2023-02-17T06:57:46.042Z,16.20
2023-02-17T06:58:46.056Z,16.20
2023-02-17T06:59:46.031Z,16.00
2023-02-17T07:00:46.023Z,16.20
2023-02-17T07:01:46.090Z,15.60
2023-02-17T07:02:46.144Z,16.00
2023-02-17T07:03:46.023Z,16.20
2023-02-17T07:04:46.025Z,16.30
2023-02-17T07:05:46.012Z,16.10
2023-02-17T07:06:46.017Z,16.60
2023-02-17T07:07:46.016Z,15.90
2023-02-17T07:08:46.005Z,16.40
2023-02-17T07:09:46.005Z,15.70
2023-02-17T07:10:46.001Z,15.40
2023-02-17T07:11:46.029Z,16.00
2023-02-17T07:12:46.000Z,15.80
2023-02-17T07:13:45.997Z,16.30
2023-02-17T07:14:46.014Z,15.90
2023-02-17T07:15:45.990Z,15.40
2023-02-17T07:16:46.043Z,15.80
2023-02-17T07:17:45.980Z,15.90
2023-02-17T07:18:45.985Z,16.00
2023-02-17T07:19:45.978Z,15.20
2023-02-17T07:20:45.975Z,15.80
2023-02-17T07:21:45.970Z,15.70
2023-02-17T07:22:45.981Z,15.50
2023-02-17T07:23:45.965Z,16.00
2023-02-17T07:24:45.961Z,15.80
2023-02-17T07:25:45.980Z,15.90
2023-02-17T07:26:45.955Z,15.70
2023-02-17T07:27:45.960Z,15.90
2023-02-17T07:28:45.956Z,15.80
2023-02-17T07:29:45.944Z,15.50
2023-02-17T07:30:46.037Z,15.70
2023-02-17T07:31:45.981Z,16.10
2023-02-17T07:32:45.935Z,15.20
2023-02-17T07:33:45.938Z,15.00
2023-02-17T07:34:45.931Z,15.20
2023-02-17T07:35:45.957Z,14.70
2023-02-17T07:36:45.922Z,14.60
2023-02-17T07:37:45.930Z,15.00
2023-02-17T07:38:45.919Z,14.50
2023-02-17T07:39:45.915Z,15.20
2023-02-17T07:40:45.916Z,14.80
2023-02-17T07:41:45.912Z,15.30
2023-02-17T07:42:45.912Z,15.60
2023-02-17T07:43:45.904Z,15.50
2023-02-17T07:44:45.894Z,15.40
2023-02-17T07:45:45.940Z,15.30
2023-02-17T07:46:45.915Z,15.30
2023-02-17T07:47:45.896Z,14.90
2023-02-17T07:48:45.892Z,15.40
2023-02-17T07:49:45.883Z,15.60
2023-02-17T07:50:45.879Z,15.20
2023-02-17T07:51:45.879Z,15.60
2023-02-17T07:52:45.877Z,15.60
2023-02-17T07:53:45.874Z,15.90
2023-02-17T07:54:45.877Z,16.10
2023-02-17T07:55:45.868Z,15.90
2023-02-17T07:56:45.860Z,16.10
2023-02-17T07:57:45.864Z,15.90
2023-02-17T07:58:45.866Z,15.50
2023-02-17T07:59:45.857Z,16.40
2023-02-17T08:00:45.853Z,16.10
2023-02-17T08:01:45.914Z,15.60
2023-02-17T08:02:45.867Z,16.10
2023-02-17T08:03:45.843Z,15.30
2023-02-17T08:04:45.842Z,15.60
2023-02-17T08:05:48.090Z,16.20
2023-02-17T08:06:45.837Z,16.70
2023-02-17T08:07:45.834Z,16.00
2023-02-17T08:08:45.828Z,16.20
2023-02-17T08:09:45.838Z,16.80
2023-02-17T08:10:45.820Z,16.30
2023-02-17T08:11:47.689Z,16.30
2023-02-17T08:12:45.817Z,15.50
2023-02-17T08:13:45.821Z,16.80
2023-02-17T08:14:45.816Z,16.40
2023-02-17T08:15:45.814Z,16.60
2023-02-17T08:16:45.871Z,16.10
2023-02-17T08:17:45.810Z,16.40
2023-02-17T08:18:45.824Z,16.60
2023-02-17T08:19:48.914Z,16.40
2023-02-17T08:20:45.832Z,16.30
2023-02-17T08:21:45.799Z,16.30
2023-02-17T08:22:45.810Z,16.40
2023-02-17T08:23:45.836Z,16.50
2023-02-17T08:24:45.788Z,16.20
2023-02-17T08:25:45.788Z,16.00
2023-02-17T08:26:45.795Z,16.10
2023-02-17T08:27:45.794Z,15.40
2023-02-17T08:28:45.789Z,15.30
2023-02-17T08:29:45.813Z,15.60
2023-02-17T08:30:45.876Z,16.20
2023-02-17T08:31:45.906Z,15.50
2023-02-17T08:32:45.793Z,15.40
2023-02-17T08:33:45.768Z,15.80
2023-02-17T08:34:45.793Z,16.30
2023-02-17T08:35:45.788Z,15.60
2023-02-17T08:36:45.771Z,15.30
2023-02-17T08:37:45.759Z,15.20
2023-02-17T08:38:45.763Z,15.50
2023-02-17T08:39:45.793Z,15.40
2023-02-17T08:40:45.765Z,15.60
2023-02-17T08:41:45.751Z,15.60
2023-02-17T08:42:45.769Z,15.40
2023-02-17T08:43:45.747Z,16.10
2023-02-17T08:44:45.738Z,15.50
2023-02-17T08:45:45.945Z,15.70
2023-02-17T08:46:45.752Z,15.30
2023-02-17T08:47:45.731Z,15.70
2023-02-17T08:48:45.731Z,16.50
2023-02-17T08:49:45.747Z,15.90
2023-02-17T08:50:45.741Z,16.50
2023-02-17T08:51:45.785Z,16.80
2023-02-17T08:52:45.736Z,37.30
2023-02-17T08:53:45.725Z,36.70
2023-02-17T08:54:45.724Z,35.50
2023-02-17T08:55:49.581Z,37.50
2023-02-17T08:56:45.746Z,38.10
2023-02-17T08:57:45.762Z,38.00
2023-02-17T08:58:45.766Z,37.30
2023-02-17T08:59:45.707Z,35.60
2023-02-17T09:00:45.698Z,38.30
2023-02-17T09:01:45.808Z,39.30
2023-02-17T09:02:45.715Z,40.10
2023-02-17T09:03:45.723Z,37.60
2023-02-17T09:04:45.714Z,39.40
2023-02-17T09:05:45.705Z,38.80
2023-02-17T09:06:45.753Z,38.20
2023-02-17T09:07:45.709Z,38.60
2023-02-17T09:08:45.669Z,38.40
2023-02-17T09:09:45.740Z,37.70
2023-02-17T09:10:45.699Z,37.10
2023-02-17T09:11:45.671Z,38.70
2023-02-17T09:12:45.667Z,38.70
2023-02-17T09:13:45.669Z,37.60
2023-02-17T09:14:45.715Z,37.40
2023-02-17T09:15:45.719Z,38.30
2023-02-17T09:16:45.760Z,37.80
2023-02-17T09:17:45.665Z,36.50
2023-02-17T09:18:45.669Z,37.40
2023-02-17T09:19:45.671Z,36.40
2023-02-17T09:20:45.665Z,36.70
2023-02-17T09:21:45.722Z,41.40
2023-02-17T09:22:45.665Z,44.20
2023-02-17T09:23:45.647Z,42.20
2023-02-17T09:24:45.637Z,42.00
2023-02-17T09:25:45.657Z,40.40
2023-02-17T09:26:45.663Z,40.40
2023-02-17T09:27:45.639Z,40.10
2023-02-17T09:28:45.648Z,42.10
2023-02-17T09:29:45.721Z,44.20
2023-02-17T09:30:45.873Z,43.80
2023-02-17T09:31:45.756Z,42.00
2023-02-17T09:32:45.675Z,42.30
2023-02-17T09:33:45.706Z,44.00
2023-02-17T09:34:45.672Z,44.20
2023-02-17T09:35:45.669Z,44.70
2023-02-17T09:36:45.615Z,47.60
2023-02-17T09:37:45.624Z,44.80
2023-02-17T09:38:45.724Z,45.90
2023-02-17T09:39:45.612Z,43.60
2023-02-17T09:40:45.710Z,44.70
2023-02-17T09:41:45.601Z,46.40
2023-02-17T09:42:45.590Z,47.70
2023-02-17T09:43:45.616Z,48.10
2023-02-17T09:44:45.613Z,48.40
2023-02-17T09:45:45.589Z,48.50
2023-02-17T09:47:00.504Z,46.40
2023-02-17T09:47:45.670Z,45.80
2023-02-17T09:48:45.623Z,46.60
2023-02-17T09:49:45.657Z,49.20
2023-02-17T09:50:45.594Z,48.00
2023-02-17T09:51:45.576Z,50.00
2023-02-17T09:52:45.599Z,50.10
2023-02-17T09:53:45.570Z,50.00
2023-02-17T09:54:45.589Z,50.30
2023-02-17T09:55:45.560Z,48.70
2023-02-17T09:56:45.640Z,50.50
2023-02-17T09:57:45.563Z,49.00
2023-02-17T09:58:45.582Z,47.60
2023-02-17T09:59:45.547Z,48.90
2023-02-17T10:00:45.550Z,51.20
2023-02-17T10:01:45.571Z,49.90
2023-02-17T10:02:45.593Z,50.00
2023-02-17T10:03:45.617Z,52.30
2023-02-17T10:04:45.617Z,49.90
2023-02-17T10:05:45.567Z,51.60
2023-02-17T10:06:45.564Z,52.40
2023-02-17T10:07:45.535Z,50.80
2023-02-17T10:08:45.535Z,51.00
2023-02-17T10:09:45.628Z,50.80
2023-02-17T10:10:45.555Z,52.70
2023-02-17T10:11:45.597Z,50.30
2023-02-17T10:12:45.620Z,51.50
2023-02-17T10:13:45.612Z,51.50
2023-02-17T10:14:45.501Z,52.30
2023-02-17T10:15:45.565Z,51.90
2023-02-17T10:16:45.558Z,54.20
2023-02-17T10:17:45.574Z,52.00
2023-02-17T10:18:45.532Z,50.20
2023-02-17T10:19:45.508Z,49.20
2023-02-17T10:20:45.573Z,50.70
2023-02-17T10:21:45.590Z,50.30
2023-02-17T10:22:45.518Z,53.50
2023-02-17T10:23:45.495Z,52.90
2023-02-17T10:24:45.501Z,55.00
2023-02-17T10:25:45.565Z,53.90
2023-02-17T10:26:45.674Z,53.10
2023-02-17T10:27:45.616Z,53.40
2023-02-17T10:28:45.471Z,51.30
2023-02-17T10:29:45.532Z,51.30
2023-02-17T10:30:45.612Z,52.30
2023-02-17T10:31:45.789Z,49.00
2023-02-17T10:32:45.562Z,54.80
2023-02-17T10:33:45.496Z,54.70
2023-02-17T10:34:45.465Z,53.60
2023-02-17T10:35:45.454Z,53.90
2023-02-17T10:36:45.486Z,53.80
2023-02-17T10:37:45.559Z,50.40
2023-02-17T10:38:45.447Z,50.40
2023-02-17T10:39:45.467Z,50.60
2023-02-17T10:40:45.496Z,48.60
2023-02-17T10:41:45.442Z,51.60
2023-02-17T10:42:45.464Z,52.00
2023-02-17T10:43:45.458Z,53.50
2023-02-17T10:44:45.483Z,51.50
2023-02-17T10:45:45.449Z,52.00
2023-02-17T10:46:45.503Z,53.10
2023-02-17T10:47:45.423Z,55.70
2023-02-17T10:48:45.432Z,52.60
2023-02-17T10:49:45.412Z,51.20
2023-02-17T10:50:45.412Z,53.90
2023-02-17T10:51:45.407Z,51.10
2023-02-17T10:52:45.407Z,51.70
2023-02-17T10:53:45.405Z,51.20
2023-02-17T10:54:45.408Z,50.20
2023-02-17T10:55:45.400Z,50.50
2023-02-17T10:56:45.430Z,52.60
2023-02-17T10:57:45.403Z,50.70
2023-02-17T10:58:45.428Z,51.50
2023-02-17T10:59:45.389Z,50.30
2023-02-17T11:00:45.399Z,50.60
2023-02-17T11:01:45.388Z,50.90
2023-02-17T11:02:45.384Z,49.10
2023-02-17T11:03:45.429Z,49.40
2023-02-17T11:04:45.385Z,50.60
2023-02-17T11:05:45.386Z,49.40
2023-02-17T11:06:45.385Z,48.50
2023-02-17T11:07:45.371Z,47.80
2023-02-17T11:08:45.370Z,47.90
2023-02-17T11:09:45.385Z,48.70
2023-02-17T11:10:45.363Z,47.30
2023-02-17T11:11:45.361Z,46.60
2023-02-17T11:12:45.368Z,53.40
2023-02-17T11:13:45.355Z,54.40
2023-02-17T11:14:45.374Z,53.80
2023-02-17T11:15:45.371Z,54.20
2023-02-17T11:16:45.402Z,53.50
2023-02-17T11:17:45.339Z,53.00
2023-02-17T11:18:45.348Z,55.10
2023-02-17T11:19:45.342Z,55.20
2023-02-17T11:20:45.356Z,55.70
2023-02-17T11:21:45.352Z,54.20
2023-02-17T11:22:45.344Z,52.30
2023-02-17T11:23:45.329Z,52.10
2023-02-17T11:24:45.331Z,52.80
2023-02-17T11:25:45.325Z,54.40
2023-02-17T11:26:45.329Z,54.50
2023-02-17T11:27:45.386Z,53.00
2023-02-17T11:28:45.327Z,53.20
2023-02-17T11:29:45.317Z,51.50
2023-02-17T11:30:45.343Z,52.70
2023-02-17T11:31:45.437Z,50.20
2023-02-17T11:32:45.325Z,53.70
2023-02-17T11:33:45.300Z,57.30
2023-02-17T11:34:45.317Z,57.40
2023-02-17T11:35:45.303Z,56.10
2023-02-17T11:36:45.302Z,54.30
2023-02-17T11:37:45.302Z,51.90
2023-02-17T11:38:45.329Z,54.00
2023-02-17T11:39:45.297Z,52.20
2023-02-17T11:40:45.297Z,54.30
2023-02-17T11:41:45.284Z,54.50
2023-02-17T11:42:45.293Z,54.00
2023-02-17T11:43:45.277Z,53.80
2023-02-17T11:44:45.289Z,52.60
2023-02-17T11:45:45.304Z,53.00
2023-02-17T11:46:45.308Z,51.30
2023-02-17T11:47:45.267Z,53.20
2023-02-17T11:48:45.278Z,57.00
2023-02-17T11:49:45.266Z,54.80
2023-02-17T11:50:45.277Z,53.10
2023-02-17T11:51:45.275Z,52.20
2023-02-17T11:52:45.278Z,51.00
2023-02-17T11:53:45.262Z,50.90
2023-02-17T11:54:45.254Z,50.80
2023-02-17T11:55:45.251Z,52.60
2023-02-17T11:56:45.260Z,51.90
2023-02-17T11:57:45.775Z,52.40
2023-02-17T11:58:45.251Z,51.40
2023-02-17T11:59:45.249Z,50.40
2023-02-17T12:00:45.240Z,50.40
2023-02-17T12:01:45.237Z,48.30
2023-02-17T12:02:45.288Z,48.90
2023-02-17T12:03:45.255Z,49.20
2023-02-17T12:04:45.248Z,49.00
2023-02-17T12:05:45.232Z,48.30
2023-02-17T12:06:45.233Z,51.30
2023-02-17T12:07:45.219Z,52.50
2023-02-17T12:08:47.497Z,52.10
2023-02-17T12:09:45.233Z,50.50
2023-02-17T12:10:45.218Z,50.70
2023-02-17T12:11:45.218Z,50.20
2023-02-17T12:12:45.214Z,49.50
2023-02-17T12:13:45.206Z,50.80
2023-02-17T12:14:45.219Z,50.00
2023-02-17T12:15:45.208Z,51.40
2023-02-17T12:16:45.233Z,50.00
2023-02-17T12:17:45.199Z,50.60
2023-02-17T12:18:45.237Z,51.40
2023-02-17T12:19:45.192Z,53.00
2023-02-17T12:20:45.186Z,53.10
2023-02-17T12:21:45.183Z,54.60
2023-02-17T12:22:45.195Z,49.90
2023-02-17T12:23:45.178Z,49.60
2023-02-17T12:24:45.191Z,49.60
2023-02-17T12:25:45.186Z,50.90
2023-02-17T12:26:45.180Z,51.80
2023-02-17T12:27:45.178Z,52.30
2023-02-17T12:28:45.179Z,51.20
2023-02-17T12:29:45.183Z,50.20
2023-02-17T12:30:45.273Z,49.00
2023-02-17T12:31:45.281Z,49.20
2023-02-17T12:32:45.178Z,49.10
2023-02-17T12:33:45.158Z,49.20
2023-02-17T12:34:45.185Z,50.90
2023-02-17T12:35:45.159Z,50.80
2023-02-17T12:36:45.184Z,51.20
2023-02-17T12:37:46.860Z,52.40
2023-02-17T12:38:45.159Z,51.90
2023-02-17T12:39:45.146Z,50.30
2023-02-17T12:40:45.152Z,49.60
2023-02-17T12:41:45.149Z,52.10
2023-02-17T12:42:45.145Z,50.70
2023-02-17T12:43:46.799Z,49.80
2023-02-17T12:44:45.159Z,50.40
2023-02-17T12:45:45.176Z,51.00
2023-02-17T12:46:45.139Z,52.00
2023-02-17T12:47:45.142Z,53.40
2023-02-17T12:48:45.130Z,52.90
2023-02-17T12:49:45.128Z,52.60
2023-02-17T12:50:45.157Z,51.70
2023-02-17T12:51:45.142Z,50.50
2023-02-17T12:52:45.124Z,50.30